Tutonchany, Russia
Current Conditions -  °F | °C
As of 10:30 AM on Monday 24 Nov 2014 (Local Time) from UNKL Reporting Station
Blowing Snow Blowing Snow  
Wind Chill: 10°   Ceiling: 300
Heat Index: 25°   Visibility: 0.12mi
Dew Point: 23°   Wind: 20mph
Humidity: 93%   Direction: 270°W
Pressure: 29.32"   Gusts: 40mph
Location:  64.22°N, 93.79°E
Report Text: UNKL 240330Z 27009G18MPS 0200 R29/0175V0700N +SHSN BLSN VV003M04/M05 Q0993 TEMPO 27014G19MPS 0300 +SHSN BLSN RMK QFE72029////35
Loading
Personal Weather Stations






























Interactive Weather Map New forecast layout! Learn more

10-Day Weather Forecast

Advertisements
Track Severe Weather on mobile